Time;durP1;ratioP1;P1;durP2;ratioP2;P2;SDS_P1;SDS_P2;PMS_P1;PMS_P2;Temp;Humidity;BMP_temperature;BMP_pressure;BME280_temperature;BME280_humidity;BME280_pressure;Samples;Min_cycle;Max_cycle;Signal;HPM_P1;HPM_P2
2022/05/13 00:00:42;;;;;;;6.77;5.47;;;;;;;17.77;100.00;98416.84;5096942;28;20215;-71
2022/05/13 00:03:09;;;;;;;5.67;5.17;;;;;;;17.68;100.00;98412.34;5099832;28;20218;-71
2022/05/13 00:05:36;;;;;;;10.00;5.50;;;;;;;17.66;100.00;98408.13;5103235;28;20218;-71
2022/05/13 00:08:03;;;;;;;6.07;5.47;;;;;;;17.62;100.00;98404.91;5113552;28;20246;-71
2022/05/13 00:10:30;;;;;;;6.40;5.80;;;;;;;17.55;100.00;98405.63;5113719;28;20579;-71
2022/05/13 00:12:56;;;;;;;6.83;6.23;;;;;;;17.53;100.00;98419.13;5112441;28;20552;-71
2022/05/13 00:15:25;;;;;;;6.97;6.27;;;;;;;17.54;100.00;98407.44;5113542;28;20220;-71
2022/05/13 00:17:55;;;;;;;7.77;6.30;;;;;;;17.53;100.00;98413.78;5113478;28;20225;-71
2022/05/13 00:20:22;;;;;;;9.03;6.27;;;;;;;17.51;100.00;98413.09;5112218;28;20213;-70
2022/05/13 00:22:52;;;;;;;6.83;5.77;;;;;;;17.60;100.00;98414.91;5112477;28;20221;-70
2022/05/13 00:25:22;;;;;;;6.57;5.97;;;;;;;17.64;100.00;98416.31;5113167;28;20709;-70
2022/05/13 00:27:49;;;;;;;6.53;5.83;;;;;;;17.67;100.00;98413.34;5112499;28;20237;-73
2022/05/13 00:30:17;;;;;;;7.60;6.83;;;;;;;17.65;100.00;98420.66;5112163;28;20210;-70
2022/05/13 00:32:44;;;;;;;7.43;6.30;;;;;;;17.67;100.00;98421.34;5110554;28;20211;-73
2022/05/13 00:35:12;;;;;;;7.57;6.77;;;;;;;17.70;100.00;98407.72;5112107;28;20291;-71
2022/05/13 00:37:39;;;;;;;8.00;6.10;;;;;;;17.72;100.00;98415.56;5112143;28;20214;-71
2022/05/13 00:40:07;;;;;;;6.73;6.00;;;;;;;17.77;100.00;98405.28;5112045;28;20214;-71
2022/05/13 00:42:34;;;;;;;5.73;5.10;;;;;;;17.76;100.00;98407.16;5110218;28;20215;-71
2022/05/13 00:45:00;;;;;;;5.70;5.20;;;;;;;17.79;100.00;98411.34;5111801;28;20225;-70
2022/05/13 00:47:27;;;;;;;5.50;5.00;;;;;;;17.81;100.00;98409.38;5110249;28;20733;-70
2022/05/13 00:49:55;;;;;;;5.00;4.50;;;;;;;17.78;100.00;98405.16;5111637;28;20209;-70
2022/05/13 00:52:24;;;;;;;5.80;5.20;;;;;;;17.78;100.00;98407.81;5096769;28;20214;-71
2022/05/13 00:54:50;;;;;;;5.00;4.50;;;;;;;17.75;100.00;98404.59;5096311;28;20580;-70
2022/05/13 00:57:18;;;;;;;5.57;4.90;;;;;;;17.79;100.00;98401.50;5096376;28;20215;-71
2022/05/13 00:59:46;;;;;;;6.83;5.07;;;;;;;17.81;100.00;98398.69;5108196;28;20214;-71
2022/05/13 01:02:13;;;;;;;6.47;5.07;;;;;;;17.79;100.00;98403.34;5109533;28;20574;-71
2022/05/13 01:04:40;;;;;;;6.40;4.93;;;;;;;17.79;100.00;98401.50;5112446;28;20221;-71
2022/05/13 01:07:12;;;;;;;5.13;4.63;;;;;;;17.80;100.00;98397.81;5112650;28;20226;-71
2022/05/13 01:09:44;;;;;;;5.10;4.40;;;;;;;17.71;100.00;98396.03;5112329;28;20210;-71
2022/05/13 01:12:15;;;;;;;4.80;4.37;;;;;;;17.74;100.00;98393.06;5109678;28;20680;-71
2022/05/13 01:14:46;;;;;;;4.87;4.37;;;;;;;17.71;100.00;98392.50;5112376;28;20214;-70
2022/05/13 01:20:06;;;;;;;5.30;4.80;;;;;;;17.38;100.00;98393.81;5098559;28;20343;-71
2022/05/13 01:22:42;;;;;;;5.73;5.13;;;;;;;17.14;100.00;98398.69;5112523;28;20570;-70
2022/05/13 01:25:09;;;;;;;7.10;6.40;;;;;;;17.06;100.00;98395.88;5115119;28;20209;-70
2022/05/13 01:27:36;;;;;;;6.37;5.67;;;;;;;17.06;100.00;98393.22;5113912;28;20226;-70
2022/05/13 01:30:03;;;;;;;7.53;5.50;;;;;;;17.05;100.00;98380.84;5103092;28;20216;-70
2022/05/13 01:32:30;;;;;;;6.67;5.77;;;;;;;17.03;100.00;98382.84;5116740;28;20224;-70
2022/05/13 01:34:56;;;;;;;6.50;5.70;;;;;;;16.99;100.00;98383.22;5116401;28;20218;-70
2022/05/13 01:37:23;;;;;;;8.57;5.67;;;;;;;16.91;100.00;98386.63;5115182;28;20213;-70
2022/05/13 01:39:51;;;;;;;6.67;6.00;;;;;;;16.88;100.00;98391.41;5115868;28;20218;-70
2022/05/13 01:42:18;;;;;;;7.63;5.97;;;;;;;16.86;100.00;98394.19;5116670;28;20213;-70
2022/05/13 01:44:44;;;;;;;6.93;6.00;;;;;;;16.82;100.00;98392.78;5116677;28;20238;-71
2022/05/13 01:47:11;;;;;;;6.23;5.63;;;;;;;16.82;100.00;98382.09;5116453;28;20214;-71
2022/05/13 01:49:37;;;;;;;7.67;5.70;;;;;;;16.79;100.00;98382.38;5114415;28;20221;-71
2022/05/13 01:52:04;;;;;;;7.03;6.20;;;;;;;16.76;100.00;98381.81;5115209;28;20210;-71
2022/05/13 01:54:31;;;;;;;7.60;6.00;;;;;;;16.76;100.00;98382.66;5114886;28;20674;-72
2022/05/13 01:56:59;;;;;;;10.07;7.63;;;;;;;16.63;100.00;98384.72;5113695;28;20581;-72
2022/05/13 01:59:25;;;;;;;7.90;7.20;;;;;;;16.56;100.00;98407.63;5114937;28;20585;-72
2022/05/13 02:01:52;;;;;;;7.87;7.07;;;;;;;16.54;100.00;98414.94;5115028;28;20319;-71
2022/05/13 02:04:17;;;;;;;7.87;7.17;;;;;;;16.60;100.00;98392.19;5113336;28;20221;-72
2022/05/13 02:06:44;;;;;;;10.07;6.67;;;;;;;16.58;100.00;98400.31;5113749;28;20214;-72
2022/05/13 02:09:10;;;;;;;8.00;6.60;;;;;;;16.56;100.00;98386.28;5113857;28;20237;-72
2022/05/13 02:11:37;;;;;;;7.17;6.47;;;;;;;16.56;100.00;98366.72;5114631;28;20206;-72
2022/05/13 02:14:05;;;;;;;8.50;6.40;;;;;;;16.53;100.00;98365.19;5114660;28;20218;-72
2022/05/13 02:16:31;;;;;;;8.33;7.13;;;;;;;16.55;100.00;98387.25;5114242;28;20210;-72
2022/05/13 02:18:58;;;;;;;8.27;7.47;;;;;;;16.57;100.00;98385.28;5113232;28;20217;-72
2022/05/13 02:21:25;;;;;;;8.63;7.73;;;;;;;16.59;100.00;98403.84;5114820;28;20575;-72
2022/05/13 02:23:52;;;;;;;8.87;7.97;;;;;;;16.64;100.00;98423.78;5114396;28;20319;-72
2022/05/13 02:26:18;;;;;;;13.97;9.33;;;;;;;16.57;100.00;98414.63;5114392;28;20210;-73
2022/05/13 02:28:45;;;;;;;10.13;8.20;;;;;;;16.54;100.00;98404.25;5099468;28;20257;-70
2022/05/13 02:31:14;;;;;;;10.40;8.43;;;;;;;16.49;100.00;98406.47;5097378;28;20219;-69
2022/05/13 02:33:41;;;;;;;10.80;9.30;;;;;;;16.41;100.00;98411.63;5098992;28;20575;-69
2022/05/13 02:36:08;;;;;;;8.90;8.00;;;;;;;16.41;100.00;98400.94;5098837;28;20573;-69
2022/05/13 02:38:36;;;;;;;8.53;7.47;;;;;;;16.38;100.00;98397.72;5101236;28;20213;-69
2022/05/13 02:41:15;;;;;;;8.53;7.70;;;;;;;16.36;100.00;98404.97;5098595;28;20215;-69
2022/05/13 02:43:42;;;;;;;9.93;6.73;;;;;;;16.26;100.00;98399.63;5098738;28;20246;-70
2022/05/13 02:46:09;;;;;;;10.37;6.77;;;;;;;16.16;100.00;98388.06;5099834;28;20672;-68
2022/05/13 02:48:37;;;;;;;7.13;6.10;;;;;;;16.09;100.00;98392.25;5099053;28;20239;-68
2022/05/13 02:51:04;;;;;;;9.07;6.63;;;;;;;16.07;100.00;98396.03;5098311;28;20218;-68
2022/05/13 02:53:31;;;;;;;7.73;6.93;;;;;;;16.09;100.00;98392.25;5098468;28;20218;-70
2022/05/13 02:55:57;;;;;;;8.83;6.43;;;;;;;16.04;100.00;98399.78;5098055;28;20214;-69
2022/05/13 02:58:24;;;;;;;12.20;6.77;;;;;;;16.04;100.00;98394.47;5099571;28;20214;-68
2022/05/13 03:00:50;;;;;;;10.90;6.87;;;;;;;16.06;100.00;98390.84;5098206;28;20211;-68
2022/05/13 03:03:17;;;;;;;8.87;6.37;;;;;;;16.05;100.00;98387.31;5098212;28;20210;-69
2022/05/13 03:05:45;;;;;;;6.77;6.07;;;;;;;16.06;100.00;98398.84;5098887;28;20210;-69
2022/05/13 03:08:11;;;;;;;6.80;6.20;;;;;;;16.09;100.00;98388.75;5099743;28;20233;-68
2022/05/13 03:10:39;;;;;;;8.70;6.80;;;;;;;16.14;100.00;98389.16;5098100;28;20221;-68
2022/05/13 03:13:09;;;;;;;9.03;6.70;;;;;;;16.16;100.00;98398.72;5098185;28;20222;-69
2022/05/13 03:15:36;;;;;;;7.10;6.40;;;;;;;16.19;100.00;98395.81;5099187;28;20215;-68
2022/05/13 03:18:03;;;;;;;8.90;6.50;;;;;;;16.22;100.00;98394.69;5099278;28;20674;-68
2022/05/13 03:20:30;;;;;;;8.13;7.07;;;;;;;16.25;100.00;98397.94;5098037;28;20212;-69
2022/05/13 03:22:57;;;;;;;8.30;6.60;;;;;;;16.26;100.00;98386.28;5096201;28;20207;-68
2022/05/13 03:25:24;;;;;;;7.23;6.37;;;;;;;16.31;100.00;98393.88;5098439;28;20214;-68
2022/05/13 03:27:51;;;;;;;7.00;6.30;;;;;;;16.27;100.00;98387.16;5100283;28;20700;-69
2022/05/13 03:30:22;;;;;;;7.10;6.40;;;;;;;16.26;100.00;98388.94;5114597;28;20217;-70
2022/05/13 03:32:49;;;;;;;7.37;6.47;;;;;;;16.28;100.00;98397.66;5114297;28;20579;-69
2022/05/13 03:35:17;;;;;;;10.23;6.83;;;;;;;16.30;100.00;98394.84;5114445;28;20210;-68
2022/05/13 03:37:44;;;;;;;8.73;6.57;;;;;;;16.33;100.00;98390.09;5113166;28;20664;-68
2022/05/13 03:40:15;;;;;;;7.40;6.63;;;;;;;16.34;100.00;98390.94;5114104;28;20293;-70
2022/05/13 03:42:42;;;;;;;8.93;6.73;;;;;;;16.31;100.00;98392.06;5114140;28;20216;-69
2022/05/13 03:45:11;;;;;;;8.23;6.50;;;;;;;16.28;100.00;98392.31;5114244;28;20215;-69
2022/05/13 03:47:37;;;;;;;7.50;6.70;;;;;;;16.25;100.00;98391.75;5109988;28;20245;-70
2022/05/13 03:50:05;;;;;;;7.40;6.70;;;;;;;16.16;100.00;98393.38;5113005;28;20229;-70
2022/05/13 03:52:32;;;;;;;12.30;7.17;;;;;;;16.13;100.00;98398.16;5113746;28;20629;-69
2022/05/13 03:54:58;;;;;;;10.13;7.10;;;;;;;16.08;100.00;98394.22;5113961;28;20221;-69
2022/05/13 03:57:26;;;;;;;7.53;6.47;;;;;;;16.08;100.00;98401.22;5112959;28;20229;-70
2022/05/13 03:59:53;;;;;;;7.33;6.40;;;;;;;16.06;100.00;98393.50;5113722;28;20586;-70
2022/05/13 04:02:20;;;;;;;10.07;6.90;;;;;;;16.07;100.00;98397.84;5113419;28;20218;-69
2022/05/13 04:10:14;;;;;;;7.77;6.63;;;;;;;16.11;100.00;98392.13;5113429;28;20259;-71
2022/05/13 04:18:10;;;;;;;7.93;6.53;;;;;;;16.09;100.00;98386.91;5113407;28;20212;-71
2022/05/13 04:20:36;;;;;;;8.40;6.87;;;;;;;16.01;100.00;98388.56;5113206;28;20206;-69
2022/05/13 04:23:03;;;;;;;9.57;6.67;;;;;;;15.97;100.00;98391.63;5112523;28;20218;-70
2022/05/13 04:25:30;;;;;;;9.30;6.73;;;;;;;15.94;100.00;98391.91;5113461;28;20220;-70
2022/05/13 04:27:58;;;;;;;7.50;6.70;;;;;;;15.88;100.00;98392.44;5102577;28;20211;-70
2022/05/13 04:30:25;;;;;;;8.27;6.37;;;;;;;15.85;100.00;98398.00;5096218;28;20218;-70
2022/05/13 04:32:51;;;;;;;7.47;6.60;;;;;;;15.85;100.00;98403.34;5111232;28;20691;-70
2022/05/13 04:35:18;;;;;;;7.13;6.03;;;;;;;15.89;100.00;98404.78;5111932;28;20213;-70
2022/05/13 04:37:44;;;;;;;7.73;6.13;;;;;;;15.96;100.00;98412.13;5112081;28;20214;-70
2022/05/13 04:40:12;;;;;;;8.47;6.60;;;;;;;16.07;100.00;98409.34;5108789;28;20286;-70
2022/05/13 04:42:49;;;;;;;7.60;6.80;;;;;;;16.16;100.00;98422.72;5111186;28;20722;-70
2022/05/13 04:45:23;;;;;;;6.73;5.93;;;;;;;16.27;100.00;98422.63;5111628;28;20701;-70
2022/05/13 04:50:35;;;;;;;6.47;5.70;;;;;;;16.44;100.00;98430.03;5096619;28;20221;-70
2022/05/13 04:53:01;;;;;;;7.37;6.60;;;;;;;16.48;100.00;98436.81;5096145;28;20215;-70
2022/05/13 04:55:28;;;;;;;8.83;6.63;;;;;;;16.57;100.00;98433.31;5096242;28;20206;-70
2022/05/13 04:57:54;;;;;;;8.00;6.03;;;;;;;16.62;100.00;98435.56;5097171;28;20211;-70
2022/05/13 05:00:22;;;;;;;10.90;6.97;;;;;;;16.67;100.00;98438.69;5096282;28;20217;-70
2022/05/13 05:02:49;;;;;;;7.60;6.07;;;;;;;16.68;100.00;98438.56;5096194;28;20215;-70
2022/05/13 05:05:16;;;;;;;8.80;6.83;;;;;;;16.69;100.00;98437.56;5103553;28;20206;-71
2022/05/13 05:07:42;;;;;;;7.53;6.63;;;;;;;16.70;100.00;98441.91;5111745;28;20218;-71
2022/05/13 05:10:10;;;;;;;6.83;6.13;;;;;;;16.71;100.00;98442.78;5111721;28;20238;-70
2022/05/13 05:12:36;;;;;;;7.57;6.70;;;;;;;16.77;100.00;98437.72;5112731;28;20206;-71
2022/05/13 05:15:04;;;;;;;8.57;6.83;;;;;;;16.80;100.00;98442.81;5112349;28;20261;-71
2022/05/13 05:17:31;;;;;;;8.43;6.93;;;;;;;16.84;100.00;98436.22;5112646;28;20217;-71
2022/05/13 05:19:58;;;;;;;7.00;6.30;;;;;;;16.90;100.00;98449.03;5111790;28;20234;-72
2022/05/13 05:22:25;;;;;;;8.03;6.00;;;;;;;17.00;100.00;98452.53;5112698;28;20221;-71
2022/05/13 05:24:51;;;;;;;7.33;5.97;;;;;;;17.06;100.00;98448.47;5112297;28;20686;-71
2022/05/13 05:27:17;;;;;;;7.97;5.87;;;;;;;17.12;100.00;98435.41;5111941;28;20206;-71
2022/05/13 05:29:46;;;;;;;8.37;6.20;;;;;;;17.19;100.00;98452.56;5109141;28;20237;-71
2022/05/13 05:32:13;;;;;;;6.57;5.30;;;;;;;17.28;100.00;98443.72;5109845;28;20585;-71
2022/05/13 05:34:41;;;;;;;6.57;5.87;;;;;;;17.36;100.00;98438.50;5111360;28;20214;-71
2022/05/13 05:37:08;;;;;;;6.50;5.80;;;;;;;17.49;100.00;98452.47;5110465;28;20217;-71
2022/05/13 05:39:34;;;;;;;6.60;5.30;;;;;;;17.55;100.00;98449.22;5110157;28;20214;-71
2022/05/13 05:42:01;;;;;;;5.50;5.00;;;;;;;17.66;100.00;98450.91;5111300;28;20218;-71
2022/05/13 05:44:27;;;;;;;7.27;4.93;;;;;;;17.73;100.00;98460.88;5111424;28;20242;-71
2022/05/13 05:46:54;;;;;;;5.70;5.10;;;;;;;17.73;100.00;98454.72;5111118;28;20221;-71
2022/05/13 05:49:20;;;;;;;6.10;5.30;;;;;;;17.72;100.00;98458.34;5109222;28;20703;-71
2022/05/13 05:51:48;;;;;;;5.87;4.90;;;;;;;17.68;100.00;98462.31;5111333;28;20214;-71
2022/05/13 05:57:16;;;;;;;6.70;4.73;;;;;;;17.51;100.00;98461.19;5109113;28;20698;-71
2022/05/13 05:59:44;;;;;;;5.57;5.07;;;;;;;17.47;100.00;98466.94;5099660;28;20217;-71
2022/05/13 06:02:11;;;;;;;5.90;5.07;;;;;;;17.45;100.00;98472.44;5112276;28;20218;-71
2022/05/13 06:04:38;;;;;;;6.03;4.63;;;;;;;17.49;100.00;98471.16;5112264;28;20225;-71
2022/05/13 06:07:08;;;;;;;5.40;4.90;;;;;;;17.55;100.00;98467.94;5111248;28;20210;-71
2022/05/13 06:09:36;;;;;;;5.90;5.33;;;;;;;17.61;100.00;98480.72;5111977;28;20340;-71
2022/05/13 06:12:03;;;;;;;6.20;5.07;;;;;;;17.65;100.00;98473.28;5115765;28;20218;-71
2022/05/13 06:14:29;;;;;;;4.90;4.40;;;;;;;17.70;100.00;98482.56;5116105;28;20582;-70
2022/05/13 06:16:56;;;;;;;6.03;4.70;;;;;;;17.74;100.00;98485.81;5115103;28;20218;-71
2022/05/13 06:19:22;;;;;;;6.13;4.60;;;;;;;17.70;100.00;98481.72;5115967;28;20217;-69
2022/05/13 06:21:49;;;;;;;5.43;4.33;;;;;;;17.67;100.00;98482.84;5112292;28;20206;-69
2022/05/13 06:24:18;;;;;;;6.30;4.50;;;;;;;17.65;100.00;98474.13;5113094;28;20214;-69
2022/05/13 06:26:45;;;;;;;5.23;4.73;;;;;;;17.70;100.00;98479.03;5112372;28;20303;-69
2022/05/13 06:29:12;;;;;;;5.57;4.27;;;;;;;17.88;100.00;98475.50;5096790;28;20234;-69
2022/05/13 06:31:39;;;;;;;6.70;4.27;;;;;;;18.19;100.00;98486.84;5099046;28;20218;-71
2022/05/13 06:34:06;;;;;;;5.57;4.60;;;;;;;18.42;100.00;98497.06;5098921;28;20559;-69
2022/05/13 06:36:33;;;;;;;5.23;4.00;;;;;;;18.50;100.00;98489.19;5100989;28;20260;-69
2022/05/13 06:39:00;;;;;;;4.33;3.73;;;;;;;18.57;100.00;98479.56;5098787;28;20222;-69
2022/05/13 06:41:28;;;;;;;5.60;4.30;;;;;;;18.73;100.00;98478.94;5098682;28;20207;-70
2022/05/13 06:43:54;;;;;;;4.63;3.87;;;;;;;18.87;100.00;98492.69;5098208;28;20258;-70
2022/05/13 06:46:22;;;;;;;4.60;4.10;;;;;;;18.88;100.00;98489.00;5099325;28;20213;-70
2022/05/13 06:48:49;;;;;;;4.50;3.60;;;;;;;18.70;96.50;98490.78;5098290;28;20237;-70
2022/05/13 06:51:16;;;;;;;4.67;3.47;;;;;;;18.61;99.00;98498.84;5096665;28;20774;-70
2022/05/13 06:53:42;;;;;;;3.93;3.57;;;;;;;18.67;100.00;98493.78;5098584;28;20221;-69
2022/05/13 06:56:09;;;;;;;4.80;3.80;;;;;;;18.64;96.42;98502.09;5101196;28;20221;-69
2022/05/13 06:58:37;;;;;;;4.53;3.47;;;;;;;18.64;98.05;98502.09;5098076;28;20218;-70
2022/05/13 07:01:04;;;;;;;5.97;3.77;;;;;;;18.69;99.18;98498.97;5098305;28;20219;-71
2022/05/13 07:03:30;;;;;;;4.60;3.17;;;;;;;18.76;98.23;98500.06;5098208;28;20230;-70
2022/05/13 07:05:57;;;;;;;4.30;3.43;;;;;;;18.91;98.63;98510.13;5100780;28;20293;-70
2022/05/13 07:08:23;;;;;;;6.07;3.87;;;;;;;19.03;92.79;98513.47;5097899;28;20214;-70
2022/05/13 07:10:50;;;;;;;4.80;3.43;;;;;;;19.11;90.72;98511.72;5097734;28;20655;-71
2022/05/13 07:13:18;;;;;;;5.80;3.17;;;;;;;19.15;90.99;98507.72;5097807;28;20226;-70
2022/05/13 07:15:46;;;;;;;5.50;3.57;;;;;;;19.26;91.87;98515.59;5098946;28;20213;-71
2022/05/13 07:18:13;;;;;;;6.03;3.73;;;;;;;19.33;89.48;98521.22;5097799;28;20215;-71
2022/05/13 07:20:40;;;;;;;4.33;2.80;;;;;;;19.39;89.26;98523.28;5097883;28;20212;-71
2022/05/13 07:23:07;;;;;;;4.30;3.20;;;;;;;19.37;87.15;98520.75;5097121;28;20215;-69
2022/05/13 07:25:33;;;;;;;6.33;3.23;;;;;;;19.25;87.56;98529.16;5100170;28;20211;-71
2022/05/13 07:28:00;;;;;;;4.37;2.90;;;;;;;19.06;83.82;98532.75;5104622;28;20210;-69
2022/05/13 07:30:27;;;;;;;5.77;3.17;;;;;;;18.97;84.65;98536.31;5112990;28;20714;-70
2022/05/13 07:32:55;;;;;;;5.97;2.80;;;;;;;18.88;85.59;98542.56;5113212;28;20218;-69
2022/05/13 07:35:21;;;;;;;3.97;2.77;;;;;;;18.87;89.79;98545.41;5112369;28;20210;-70
2022/05/13 07:37:48;;;;;;;3.23;2.93;;;;;;;18.87;91.25;98540.91;5113972;28;20217;-70
2022/05/13 07:42:58;;;;;;;3.70;3.30;;;;;;;18.90;90.46;98543.25;5112365;28;20244;-71
2022/05/13 07:45:25;;;;;;;5.27;3.40;;;;;;;18.93;91.62;98553.69;5112112;28;20236;-70
2022/05/13 07:47:52;;;;;;;3.60;2.97;;;;;;;18.88;87.48;98547.94;5105514;28;20226;-72
2022/05/13 07:50:20;;;;;;;4.00;2.70;;;;;;;19.01;83.70;98551.13;5095768;28;20238;-70
2022/05/13 07:52:46;;;;;;;4.03;2.70;;;;;;;19.11;85.59;98556.41;5096469;28;20255;-70
2022/05/13 07:55:15;;;;;;;3.50;2.80;;;;;;;19.24;84.23;98560.47;5098058;28;20215;-70
2022/05/13 07:57:44;;;;;;;5.67;2.83;;;;;;;19.40;85.19;98568.72;5095638;28;20712;-70
2022/05/13 08:00:26;;;;;;;6.23;3.27;;;;;;;19.48;85.45;98563.44;5095910;28;20215;-70
2022/05/13 08:02:53;;;;;;;4.53;2.83;;;;;;;19.54;85.44;98568.19;5098149;28;20214;-70
2022/05/13 08:05:22;;;;;;;4.40;2.67;;;;;;;19.58;83.31;98560.69;5095790;28;20216;-69
2022/05/13 08:07:48;;;;;;;4.80;2.80;;;;;;;19.52;80.38;98566.66;5094000;28;20206;-70
2022/05/13 08:10:15;;;;;;;6.13;2.90;;;;;;;19.53;83.40;98563.84;5095565;28;20341;-71
2022/05/13 08:12:43;;;;;;;7.23;2.87;;;;;;;19.64;81.96;98560.91;5097520;28;20222;-69
2022/05/13 08:15:10;;;;;;;5.93;3.17;;;;;;;19.65;78.30;98562.63;5095626;28;20242;-71
2022/05/13 08:17:37;;;;;;;5.43;2.67;;;;;;;19.76;77.43;98567.75;5095528;28;20613;-71
2022/05/13 08:20:04;;;;;;;5.87;2.93;;;;;;;19.85;73.12;98569.53;5095113;28;20206;-71
2022/05/13 08:22:32;;;;;;;4.37;3.27;;;;;;;19.99;75.11;98573.53;5097529;28;20293;-71
2022/05/13 08:24:58;;;;;;;4.47;2.47;;;;;;;20.17;76.76;98561.78;5095318;28;20216;-71
2022/05/13 08:27:25;;;;;;;4.97;2.53;;;;;;;20.45;78.25;98560.69;5095295;28;20214;-71
2022/05/13 08:29:51;;;;;;;5.00;2.63;;;;;;;20.90;77.89;98571.25;5105663;28;20233;-71
2022/05/13 08:32:18;;;;;;;4.53;2.90;;;;;;;21.33;76.60;98563.03;5111991;28;20241;-71
2022/05/13 08:34:44;;;;;;;3.30;2.57;;;;;;;21.66;73.88;98554.91;5109191;28;20222;-70
2022/05/13 08:37:11;;;;;;;3.90;2.33;;;;;;;22.06;74.91;98559.53;5111877;28;20229;-72
2022/05/13 08:39:39;;;;;;;4.90;2.60;;;;;;;22.31;68.51;98562.03;5111639;28;20214;-71
2022/05/13 08:42:13;;;;;;;6.00;2.53;;;;;;;22.31;56.74;98567.44;5111802;28;20214;-71
2022/05/13 08:44:40;;;;;;;5.50;2.33;;;;;;;22.03;58.69;98568.78;5093221;28;20241;-70
2022/05/13 08:47:14;;;;;;;4.87;2.50;;;;;;;21.71;62.36;98557.94;5094758;28;20224;-70
2022/05/13 08:49:48;;;;;;;6.07;2.60;;;;;;;21.50;64.38;98560.22;5098765;28;20729;-71
2022/05/13 08:55:16;;;;;;;6.27;2.40;;;;;;;21.81;65.41;98568.56;5094886;28;20219;-71
2022/05/13 08:57:46;;;;;;;4.53;2.30;;;;;;;21.90;67.30;98572.97;5095065;28;20687;-71
2022/05/13 09:00:17;;;;;;;6.53;2.60;;;;;;;22.02;66.45;98577.03;5094966;28;20765;-71
2022/05/13 09:02:53;;;;;;;3.50;2.70;;;;;;;22.14;64.46;98568.44;5094515;28;20225;-71
2022/05/13 09:05:26;;;;;;;3.30;2.70;;;;;;;22.29;64.05;98565.91;5094776;28;20217;-70
2022/05/13 09:07:53;;;;;;;4.33;2.70;;;;;;;22.25;62.59;98560.03;5097486;28;20214;-71
2022/05/13 09:10:22;;;;;;;5.10;2.77;;;;;;;21.94;60.86;98559.00;5094412;28;20230;-70
2022/05/13 09:12:55;;;;;;;4.73;2.40;;;;;;;21.59;58.52;98563.78;5094313;28;20221;-70
2022/05/13 09:15:26;;;;;;;5.10;2.23;;;;;;;21.53;59.28;98565.25;5095092;28;20218;-70
2022/05/13 09:18:03;;;;;;;3.33;2.00;;;;;;;21.48;60.98;98578.38;5096602;28;20229;-71
2022/05/13 09:20:29;;;;;;;3.17;2.20;;;;;;;21.43;58.93;98574.47;5094707;28;20608;-71
2022/05/13 09:22:59;;;;;;;4.60;2.60;;;;;;;21.28;59.39;98570.75;5094588;28;20213;-71
2022/05/13 09:25:34;;;;;;;3.37;2.37;;;;;;;21.19;59.74;98586.00;5096505;28;20279;-70
2022/05/13 09:28:09;;;;;;;5.40;2.60;;;;;;;20.93;61.49;98577.13;5099868;28;20213;-70
2022/05/13 09:30:37;;;;;;;4.47;2.03;;;;;;;20.86;58.45;98570.66;5109761;28;20595;-71
2022/05/13 09:33:22;;;;;;;3.60;2.20;;;;;;;20.92;62.92;98571.91;5110027;28;20296;-70
2022/05/13 09:35:51;;;;;;;3.33;2.07;;;;;;;20.89;64.88;98580.28;5109951;28;20213;-70
2022/05/13 09:38:21;;;;;;;4.87;2.27;;;;;;;20.88;65.04;98574.09;5110006;28;20212;-72
2022/05/13 09:41:00;;;;;;;4.47;2.13;;;;;;;20.92;64.64;98580.81;5109915;28;20553;-71
2022/05/13 09:43:37;;;;;;;5.53;2.20;;;;;;;21.12;62.87;98573.34;5094994;28;20290;-70
2022/05/13 09:46:06;;;;;;;4.67;2.30;;;;;;;21.38;61.35;98580.34;5096884;28;20214;-69
2022/05/13 09:48:36;;;;;;;4.87;2.40;;;;;;;21.54;61.02;98566.97;5098207;28;20206;-72
2022/05/13 09:51:22;;;;;;;4.20;1.97;;;;;;;21.54;59.32;98579.56;5100668;28;20245;-70
2022/05/13 09:54:01;;;;;;;5.37;2.13;;;;;;;21.60;61.43;98574.38;5102033;28;20214;-70
2022/05/13 09:56:40;;;;;;;3.90;2.27;;;;;;;21.57;62.48;98566.63;5114843;28;20222;-71
2022/05/13 09:59:15;;;;;;;4.37;2.10;;;;;;;21.51;62.51;98572.66;5098969;28;20645;-71
2022/05/13 10:01:41;;;;;;;4.93;2.47;;;;;;;21.42;59.52;98572.81;5098169;28;20213;-71
2022/05/13 10:04:11;;;;;;;3.20;1.73;;;;;;;21.44;60.81;98577.03;5098046;28;20237;-70
2022/05/13 10:06:39;;;;;;;4.70;2.97;;;;;;;21.45;60.32;98578.69;5111721;28;20214;-70
2022/05/13 10:14:42;;;;;;;4.80;3.10;;;;;;;21.34;62.10;98572.78;5071890;28;20275;-71
2022/05/13 10:17:14;;;;;;;4.00;3.37;;;;;;;21.21;60.66;98585.84;5101294;28;20220;-70
2022/05/13 10:19:45;;;;;;;5.90;3.10;;;;;;;21.12;60.77;98582.28;5112630;28;20676;-70
2022/05/13 10:22:19;;;;;;;4.67;3.20;;;;;;;21.00;62.71;98582.69;5114763;28;20210;-71
2022/05/13 10:24:50;;;;;;;7.03;3.00;;;;;;;20.90;62.57;98585.50;5098677;28;20218;-71
2022/05/13 10:27:26;;;;;;;5.10;2.90;;;;;;;21.12;62.83;98582.28;5097478;28;20733;-71
2022/05/13 10:29:59;;;;;;;6.17;3.17;;;;;;;21.32;62.47;98588.22;5108949;28;20225;-71
2022/05/13 10:32:38;;;;;;;4.47;3.10;;;;;;;21.45;59.59;98589.47;5113444;28;20217;-72
2022/05/13 10:35:10;;;;;;;7.03;2.90;;;;;;;20.94;60.17;98589.56;5114227;28;20300;-70
2022/05/13 10:37:46;;;;;;;4.77;3.00;;;;;;;20.90;59.45;98585.50;5114157;28;20210;-70
2022/05/13 10:40:17;;;;;;;2.80;2.50;;;;;;;20.99;62.00;98581.03;5113682;28;20213;-71
2022/05/13 10:42:52;;;;;;;4.53;2.60;;;;;;;21.07;63.16;98579.22;5100306;28;20214;-70
2022/05/13 10:45:22;;;;;;;5.43;2.67;;;;;;;20.97;60.05;98578.47;5114005;28;20220;-71
2022/05/13 10:47:53;;;;;;;4.43;3.07;;;;;;;20.74;59.28;98582.72;5112120;28;20217;-70
2022/05/13 10:50:22;;;;;;;4.50;2.93;;;;;;;20.59;59.80;98586.09;5112691;28;20342;-71
2022/05/13 10:52:56;;;;;;;5.63;2.87;;;;;;;20.72;60.23;98583.88;5113934;28;20223;-70
2022/05/13 10:55:31;;;;;;;4.20;3.00;;;;;;;20.89;57.86;98581.13;5113950;28;20580;-71
2022/05/13 10:58:13;;;;;;;4.73;3.10;;;;;;;20.96;58.35;98581.34;5111619;28;20652;-70
2022/05/13 11:00:46;;;;;;;5.77;3.20;;;;;;;20.92;57.89;98572.75;5113506;28;20210;-71
2022/05/13 11:03:28;;;;;;;4.50;2.80;;;;;;;21.04;60.29;98574.16;5113432;28;20266;-70
2022/05/13 11:06:13;;;;;;;5.30;3.10;;;;;;;21.18;59.66;98570.88;5112372;28;20217;-70
2022/05/13 11:08:50;;;;;;;5.00;3.13;;;;;;;21.37;59.91;98576.00;5113241;28;20210;-70
2022/05/13 11:11:35;;;;;;;3.30;2.90;;;;;;;21.71;61.60;98576.78;5113174;28;20762;-70
2022/05/13 11:14:14;;;;;;;6.57;3.40;;;;;;;21.85;59.86;98575.31;5109758;28;20221;-70
2022/05/13 11:16:54;;;;;;;4.70;3.27;;;;;;;21.97;60.13;98572.13;5111880;28;20243;-70
2022/05/13 11:19:28;;;;;;;5.00;3.63;;;;;;;21.87;54.85;98581.34;5111886;28;20228;-70
2022/05/13 11:22:02;;;;;;;4.00;2.93;;;;;;;21.80;56.97;98578.50;5111217;28;20217;-70
2022/05/13 11:27:47;;;;;;;4.57;2.90;;;;;;;21.92;56.25;98571.78;5104210;28;20582;-70
2022/05/13 11:30:17;;;;;;;6.30;3.30;;;;;;;21.86;58.31;98567.06;5096666;28;20230;-71
2022/05/13 11:32:50;;;;;;;5.47;3.00;;;;;;;21.56;60.09;98564.94;5096175;28;20210;-70
2022/05/13 11:35:36;;;;;;;4.40;2.97;;;;;;;21.24;60.59;98564.84;5098868;28;20213;-71
2022/05/13 11:38:08;;;;;;;3.37;2.67;;;;;;;20.87;58.96;98569.69;5101796;28;20213;-68
2022/05/13 11:40:42;;;;;;;4.13;2.93;;;;;;;20.78;63.60;98565.25;5111143;28;20621;-68
2022/05/13 11:43:25;;;;;;;4.80;2.60;;;;;;;21.12;62.46;98558.06;5112125;28;20242;-70
2022/05/13 11:46:20;;;;;;;4.83;2.90;;;;;;;21.69;61.92;98557.28;5101077;28;21263;-68
2022/05/13 11:48:49;;;;;;;4.63;2.80;;;;;;;22.20;60.85;98564.25;5099919;28;20218;-68
2022/05/13 11:51:19;;;;;;;5.03;3.07;;;;;;;22.59;55.34;98566.09;5111554;28;20711;-68
2022/05/13 11:53:52;;;;;;;4.23;2.67;;;;;;;22.37;58.55;98558.66;5112802;28;20220;-68
2022/05/13 11:56:34;;;;;;;4.43;2.83;;;;;;;22.29;55.72;98558.69;5112766;28;20220;-69
2022/05/13 11:59:03;;;;;;;4.00;2.60;;;;;;;21.96;58.13;98558.84;5106517;28;20218;-68
2022/05/13 12:01:53;;;;;;;5.93;2.97;;;;;;;21.83;60.55;98556.63;5112446;28;20574;-69
2022/05/13 12:04:32;;;;;;;5.90;3.10;;;;;;;21.81;59.93;98550.56;5111744;28;20214;-68
2022/05/13 12:07:01;;;;;;;3.93;2.50;;;;;;;21.75;62.09;98553.09;5094812;28;20210;-69
2022/05/13 12:09:31;;;;;;;5.20;3.10;;;;;;;21.72;63.23;98551.59;5095274;28;20291;-69
2022/05/13 12:12:08;;;;;;;5.83;2.80;;;;;;;21.63;61.77;98544.44;5095574;28;20252;-69